Youngstown, OH (44501)

3:07 PM EST on February 10, 2016 (GMT -0500)
Fred Martin Computers | | Change Station
CLOSE
Current Station
Personal Weather Station
Location: Youngstown, OH
Elevation: 1004 ft
Nearby Weather Stations

Elev 1004 ft 41.05 °N, 80.69 °W | Updated 15 seconds ago

Snow
Snow
22.4 °F
Feels Like 22 °F
N
3.0
Wind Variable Wind from SSW
Gusts 4.0 mph

Today
High -- | Low -- °F
--% Chance of Precip.
Yesterday
High -- | Low -- °F
Precip. -- in
Pressure 29.78 in
Visibility 0.5 miles
Clouds Mostly Cloudy 1000 ft
Overcast 2500 ft
Windchill 22 °F
Dew Point 17 °F
Humidity 80%
Rainfall 0.00 in
Snow Depth Not available.
7:24 AM 5:50 PM
Waxing Crescent, 7% visible
SPECI KYNG 101958Z 26013KT 1/2SM SN BR BKN010 OVC025 M06/M09 A2978 RMK AO2 P0000 T10611094
Pressure 29.78 in
Visibility 0.5 miles
Clouds Mostly Cloudy 1000 ft
Overcast 2500 ft
Windchill 22 °F
Dew Point 17 °F
Humidity 80%
Rainfall 0.00 in
Snow Depth Not available.
7:24 AM 5:50 PM
Waxing Crescent, 7% visible
SPECI KYNG 101958Z 26013KT 1/2SM SN BR BKN010 OVC025 M06/M09 A2978 RMK AO2 P0000 T10611094

10-Day Weather Forecast

Almanac

Astronomy

Feb. 10, 2016 Rise Set
Actual Time
Civil Twilight
Nautical Twilight
Astronomical Twilight
Moon
Length of Visible Light
Length of Day
Tomorrow will be .
, % of the Moon is Illuminated

Today's Extremes

State Highs State Lows

Community

WunderPhotos

Upload Photos

1,891,929 photos uploaded!

WunderBlog® & News

Nearby

Air Quality

  Air Quality AQ Index Pollutant
Not available.

Snow Depth

Station Depth Elevation

Earthquake Activity

City Distance Mag. Time & Date
Minimum magnitude displayed is 2.5.

Coastal Water Temperatures

Place Temperature

Stations

Nearby Weather Stations

Station Location Temp. Windchill Dew Point Humidity Wind Precip. Elev Updated Type
                   

Watches & Warnings

There are currently no watches in effect.